createdAt,value
2022-12-12T00:02:27.532Z,-5.70
2022-12-12T00:07:30.918Z,-5.70
2022-12-12T00:12:34.133Z,-5.80
2022-12-12T00:17:38.915Z,-5.90
2022-12-12T00:22:42.484Z,-6.00
2022-12-12T00:27:45.908Z,-5.90
2022-12-12T00:32:50.500Z,-5.80
2022-12-12T00:37:53.747Z,-5.70
2022-12-12T00:42:56.992Z,-5.80
2022-12-12T00:48:01.792Z,-5.90
2022-12-12T00:53:06.595Z,-6.00
2022-12-12T00:58:14.013Z,-6.20
2022-12-12T01:03:19.394Z,-6.30
2022-12-12T01:08:22.751Z,-6.40
2022-12-12T01:13:26.857Z,-6.50
2022-12-12T01:18:31.566Z,-6.70
2022-12-12T01:23:34.815Z,-6.90
2022-12-12T01:28:38.281Z,-7.00
2022-12-12T01:33:46.211Z,-7.10
2022-12-12T01:38:51.859Z,-7.10
2022-12-12T01:43:55.840Z,-7.10
2022-12-12T01:49:03.432Z,-7.20
2022-12-12T01:54:11.372Z,-7.30
2022-12-12T01:59:19.246Z,-7.40
2022-12-12T02:04:26.449Z,-7.40
2022-12-12T02:09:29.898Z,-7.40
2022-12-12T02:14:38.645Z,-7.40
2022-12-12T02:20:26.285Z,-7.40
2022-12-12T02:25:55.440Z,-7.30
2022-12-12T02:31:12.036Z,-7.10
2022-12-12T02:36:27.133Z,-6.80
2022-12-12T02:41:37.033Z,-6.60
2022-12-12T02:46:48.078Z,-6.30
2022-12-12T02:51:54.319Z,-6.20
2022-12-12T02:56:59.336Z,-6.00
2022-12-12T03:02:38.160Z,-5.80
2022-12-12T03:07:52.476Z,-5.80
2022-12-12T03:13:04.840Z,-5.90
2022-12-12T03:18:21.417Z,-6.10
2022-12-12T03:23:28.887Z,-6.10
2022-12-12T03:28:35.965Z,-6.30
2022-12-12T03:33:45.467Z,-6.40
2022-12-12T03:38:57.179Z,-6.50
2022-12-12T03:44:07.017Z,-6.60
2022-12-12T03:49:20.673Z,-6.60
2022-12-12T03:54:28.724Z,-6.60
2022-12-12T03:59:36.614Z,-6.80
2022-12-12T04:04:45.245Z,-6.80
2022-12-12T04:10:06.375Z,-6.90
2022-12-12T04:15:35.258Z,-6.90
2022-12-12T04:21:02.129Z,-7.00
2022-12-12T04:26:28.830Z,-7.00
2022-12-12T04:31:36.201Z,-7.10
2022-12-12T04:36:42.368Z,-7.20
2022-12-12T04:41:47.622Z,-7.40
2022-12-12T04:46:54.704Z,-7.50
2022-12-12T04:52:03.714Z,-7.60
2022-12-12T04:57:10.924Z,-7.70
2022-12-12T05:02:21.346Z,-7.80
2022-12-12T05:07:37.884Z,-7.90
2022-12-12T05:12:45.997Z,-7.90
2022-12-12T05:17:52.382Z,-8.10
2022-12-12T05:22:57.014Z,-8.10
2022-12-12T05:28:00.370Z,-8.20
2022-12-12T05:33:03.682Z,-8.20
2022-12-12T05:38:08.409Z,-8.20
2022-12-12T05:43:11.663Z,-8.00
2022-12-12T05:48:23.983Z,-7.60
2022-12-12T05:53:29.162Z,-7.20
2022-12-12T05:58:32.396Z,-6.80
2022-12-12T06:03:36.269Z,-6.50
2022-12-12T06:08:40.981Z,-6.40
2022-12-12T06:13:44.322Z,-6.30
2022-12-12T06:18:52.437Z,-6.30
2022-12-12T06:23:57.637Z,-6.30
2022-12-12T06:29:01.257Z,-6.20
2022-12-12T06:34:04.627Z,-6.20
2022-12-12T06:39:09.799Z,-6.20
2022-12-12T06:44:13.059Z,-6.10
2022-12-12T06:49:17.466Z,-6.00
2022-12-12T06:54:28.168Z,-6.10
2022-12-12T06:59:31.739Z,-6.10
2022-12-12T07:04:38.463Z,-6.10
2022-12-12T07:09:43.245Z,-6.10
2022-12-12T07:14:46.649Z,-6.10
2022-12-12T07:19:50.031Z,-6.10
2022-12-12T07:24:54.679Z,-6.00
2022-12-12T07:29:57.923Z,-5.90
2022-12-12T07:35:01.193Z,-5.90
2022-12-12T07:40:06.699Z,-5.90
2022-12-12T07:45:16.496Z,-5.80
2022-12-12T07:50:21.779Z,-5.70
2022-12-12T07:55:27.124Z,-5.60
2022-12-12T08:00:31.874Z,-5.50
2022-12-12T08:05:35.351Z,-5.40
2022-12-12T08:10:41.616Z,-5.30
2022-12-12T08:15:45.987Z,-5.20
2022-12-12T08:20:49.547Z,-5.10
2022-12-12T08:25:54.168Z,-5.00
2022-12-12T08:30:57.743Z,-4.90
2022-12-12T08:36:13.000Z,-4.80
2022-12-12T08:41:22.758Z,-4.60
2022-12-12T08:46:26.051Z,-4.60
2022-12-12T08:51:29.293Z,-4.50
2022-12-12T08:56:34.024Z,-4.30
2022-12-12T09:01:40.038Z,-4.00
2022-12-12T09:06:43.371Z,-3.90
2022-12-12T09:11:47.970Z,-3.80
2022-12-12T09:16:51.248Z,-3.70
2022-12-12T09:21:54.523Z,-3.30
2022-12-12T09:26:59.314Z,-3.10
2022-12-12T09:32:07.752Z,-2.80
2022-12-12T09:37:10.973Z,-2.70
2022-12-12T09:42:29.192Z,-2.30
2022-12-12T09:47:37.397Z,-2.20
2022-12-12T09:52:41.975Z,-2.40
2022-12-12T09:57:55.013Z,-2.40
2022-12-12T10:03:13.424Z,-2.40
2022-12-12T10:08:23.472Z,-2.40
2022-12-12T10:13:32.910Z,-2.20
2022-12-12T10:18:40.891Z,-2.20
2022-12-12T10:23:48.827Z,-2.50
2022-12-12T10:28:56.990Z,-2.60
2022-12-12T10:34:16.576Z,-2.60
2022-12-12T10:39:28.360Z,-2.50
2022-12-12T10:45:10.454Z,-2.60
2022-12-12T10:50:24.406Z,-2.70
2022-12-12T10:55:40.072Z,-2.70
2022-12-12T11:00:46.673Z,-2.50
2022-12-12T11:05:50.348Z,-2.30
2022-12-12T11:11:15.356Z,-2.30
2022-12-12T11:16:25.413Z,-2.40
2022-12-12T11:21:29.971Z,-2.30
2022-12-12T11:26:43.279Z,-2.20
2022-12-12T11:31:48.059Z,-2.20
2022-12-12T11:36:51.675Z,-2.00
2022-12-12T11:42:06.867Z,-2.00
2022-12-12T11:47:29.144Z,-2.00
2022-12-12T11:52:34.624Z,-1.70
2022-12-12T11:58:00.313Z,-1.50
2022-12-12T12:03:24.086Z,-1.40
2022-12-12T12:08:42.077Z,-1.40
2022-12-12T12:14:03.012Z,-1.30
2022-12-12T12:19:16.412Z,-1.20
2022-12-12T12:24:46.965Z,-1.00
2022-12-12T12:30:20.866Z,-1.00
2022-12-12T12:35:33.801Z,-1.00
2022-12-12T12:40:56.952Z,-1.00
2022-12-12T12:46:09.320Z,-0.90
2022-12-12T12:51:23.870Z,-1.00
2022-12-12T12:56:29.830Z,-0.90
2022-12-12T13:01:37.219Z,-0.80
2022-12-12T13:06:47.314Z,-0.70
2022-12-12T13:11:54.504Z,-0.70
2022-12-12T13:17:00.472Z,-0.80
2022-12-12T13:22:09.692Z,-0.80
2022-12-12T13:27:19.822Z,-0.80
2022-12-12T13:32:56.171Z,-1.00
2022-12-12T13:38:01.701Z,-1.00
2022-12-12T13:43:10.129Z,-1.10
2022-12-12T13:48:39.153Z,-1.10
2022-12-12T13:53:47.735Z,-1.30
2022-12-12T13:58:51.085Z,-1.50
2022-12-12T14:03:56.139Z,-1.50
2022-12-12T14:09:01.631Z,-1.40
2022-12-12T14:14:18.745Z,-1.50
2022-12-12T14:19:33.966Z,-1.50
2022-12-12T14:25:19.051Z,-1.50
2022-12-12T14:30:24.670Z,-1.50
2022-12-12T14:35:35.727Z,-1.60
2022-12-12T14:40:44.752Z,-1.70
2022-12-12T14:45:57.147Z,-1.70
2022-12-12T14:51:12.359Z,-1.80
2022-12-12T14:56:25.445Z,-1.90
2022-12-12T15:01:34.644Z,-2.10
2022-12-12T15:06:39.131Z,-2.20
2022-12-12T15:11:44.187Z,-2.40
2022-12-12T15:16:51.915Z,-2.60
2022-12-12T15:21:55.608Z,-2.80
2022-12-12T15:27:00.973Z,-3.20
2022-12-12T15:32:09.487Z,-3.40
2022-12-12T15:37:28.952Z,-3.60
2022-12-12T15:42:34.657Z,-3.70
2022-12-12T15:47:38.105Z,-4.00
2022-12-12T15:52:41.532Z,-4.10
2022-12-12T15:57:48.659Z,-4.30
2022-12-12T16:03:03.649Z,-4.40
2022-12-12T16:08:32.302Z,-4.50
2022-12-12T16:13:39.279Z,-4.70
2022-12-12T16:18:51.859Z,-4.80
2022-12-12T16:24:10.971Z,-4.90
2022-12-12T16:29:19.492Z,-4.80
2022-12-12T16:34:22.858Z,-4.80
2022-12-12T16:39:27.919Z,-4.90
2022-12-12T16:44:32.795Z,-5.10
2022-12-12T16:49:41.262Z,-5.20
2022-12-12T16:54:52.869Z,-5.30
2022-12-12T16:59:58.650Z,-5.40
2022-12-12T17:05:01.994Z,-5.60
2022-12-12T17:10:06.257Z,-5.70
2022-12-12T17:15:22.242Z,-5.80
2022-12-12T17:20:37.429Z,-5.90
2022-12-12T17:25:41.612Z,-6.00
2022-12-12T17:30:47.671Z,-6.00
2022-12-12T17:35:59.342Z,-6.00
2022-12-12T17:41:06.420Z,-6.20
2022-12-12T17:46:14.916Z,-6.30
2022-12-12T17:51:26.617Z,-6.40
2022-12-12T17:56:30.329Z,-6.50
2022-12-12T18:01:36.810Z,-6.40
2022-12-12T18:06:47.931Z,-6.40
2022-12-12T18:11:51.253Z,-6.50
2022-12-12T18:16:55.947Z,-6.50
2022-12-12T18:22:01.296Z,-6.50
2022-12-12T18:27:05.939Z,-6.60
2022-12-12T18:32:10.652Z,-6.60
2022-12-12T18:37:13.925Z,-6.60
2022-12-12T18:42:20.048Z,-6.60
2022-12-12T18:47:24.703Z,-6.60
2022-12-12T18:52:28.167Z,-6.70
2022-12-12T18:57:31.433Z,-6.90
2022-12-12T19:02:38.652Z,-7.00
2022-12-12T19:07:42.111Z,-7.10
2022-12-12T19:12:45.873Z,-7.20
2022-12-12T19:17:50.627Z,-7.30
2022-12-12T19:22:53.980Z,-7.30
2022-12-12T19:27:59.395Z,-7.30
2022-12-12T19:33:04.088Z,-7.10
2022-12-12T19:38:07.323Z,-6.80
2022-12-12T19:43:11.696Z,-6.80
2022-12-12T19:48:16.985Z,-6.80
2022-12-12T19:53:20.255Z,-6.90
2022-12-12T19:58:23.824Z,-7.00
2022-12-12T20:03:28.391Z,-7.10
2022-12-12T20:08:32.515Z,-7.30
2022-12-12T20:13:36.172Z,-7.40
2022-12-12T20:18:41.474Z,-7.40
2022-12-12T20:23:47.597Z,-7.40
2022-12-12T20:28:51.562Z,-7.50
2022-12-12T20:33:58.342Z,-7.60
2022-12-12T20:39:06.365Z,-7.70
2022-12-12T20:44:12.406Z,-7.50
2022-12-12T20:49:22.294Z,-7.40
2022-12-12T20:54:26.035Z,-7.30
2022-12-12T20:59:30.386Z,-7.20
2022-12-12T21:04:35.980Z,-7.20
2022-12-12T21:09:39.441Z,-7.20
2022-12-12T21:14:42.843Z,-7.10
2022-12-12T21:19:47.623Z,-7.20
2022-12-12T21:24:52.804Z,-7.30
2022-12-12T21:29:56.170Z,-7.30
2022-12-12T21:35:00.933Z,-7.30
2022-12-12T21:40:04.345Z,-7.30
2022-12-12T21:45:09.064Z,-7.20
2022-12-12T21:50:13.962Z,-7.20
2022-12-12T21:55:17.592Z,-7.30
2022-12-12T22:00:21.065Z,-7.40
2022-12-12T22:05:28.105Z,-7.50
2022-12-12T22:10:33.477Z,-7.60
2022-12-12T22:15:36.774Z,-7.60
2022-12-12T22:20:41.544Z,-7.80
2022-12-12T22:25:45.235Z,-7.90
2022-12-12T22:30:48.667Z,-8.00
2022-12-12T22:36:00.254Z,-8.10
2022-12-12T22:41:03.513Z,-8.10
2022-12-12T22:46:08.918Z,-8.10
2022-12-12T22:51:19.456Z,-8.20
2022-12-12T22:56:22.801Z,-8.20
2022-12-12T23:01:28.631Z,-8.30
2022-12-12T23:06:34.547Z,-8.40
2022-12-12T23:11:39.314Z,-8.40
2022-12-12T23:16:43.253Z,-8.40
2022-12-12T23:21:48.332Z,-8.40
2022-12-12T23:26:52.464Z,-8.40
2022-12-12T23:31:56.250Z,-8.40
2022-12-12T23:37:00.904Z,-8.40
2022-12-12T23:42:04.224Z,-8.50
2022-12-12T23:47:07.692Z,-8.50
2022-12-12T23:52:12.872Z,-8.40
2022-12-12T23:57:16.140Z,-8.30
